This is the latest recevied weather packets stored in our database for station/object KI8L. If no packets are shown the sender has not sent any weather packets the latest 1 day(s).
| Time | Temp. | Humidity | Pressure | Rain* | Wind** | Luminosity | Snow |
|---|---|---|---|---|---|---|---|
| 1778077550 | 9.44° C | 82% | 1013.2 hPa | 0 mm | - | 262 W/m² | - |
| 1778076644 | 9.44° C | 84% | 1013 hPa | 0 mm | - | 303 W/m² | - |
| 1778076341 | 9.44° C | 83% | 1013 hPa | 0 mm | - | 588 W/m² | - |
| 1778075735 | 8.33° C | 88% | 1013 hPa | 0 mm | - | 211 W/m² | - |
| 1778075431 | 8.33° C | 89% | 1013.4 hPa | 0 mm | - | 178 W/m² | - |
| 1778074218 | 7.78° C | 94% | 1013.1 hPa | 0 mm | - | 116 W/m² | - |
| 1778073915 | 7.78° C | 94% | 1013 hPa | 0 mm | - | 97 W/m² | - |
| 1778071191 | 7.22° C | 98% | 1012.1 hPa | 0 mm | - | 43 W/m² | - |
| 1778069678 | 6.67° C | 99% | 1011.7 hPa | 0 mm | - | 70 W/m² | - |
| 1778066955 | 6.67° C | 99% | 1011.8 hPa | 0 mm | - | 13 W/m² | - |
| 1778066653 | 6.67° C | 99% | 1011.8 hPa | 0 mm | - | 11 W/m² | - |
| 1778066048 | 6.11° C | 99% | 1011.5 hPa | 0 mm | - | 10 W/m² | - |
| 1778065442 | 6.67° C | 99% | 1011 hPa | 0 mm | - | 9 W/m² | - |
| 1778064835 | 6.67° C | 99% | 1011 hPa | 0 mm | - | 5 W/m² | - |
| 1778064230 | 6.67° C | 99% | 1011.1 hPa | 0 mm | - | 2 W/m² | - |
| 1778063928 | 6.67° C | 99% | 1010.7 hPa | 0 mm | - | 1 W/m² | - |
| 1778063020 | 6.67° C | 99% | 1010.9 hPa | 0 mm | - | 0 W/m² | - |
| 1778062717 | 6.67° C | 99% | 1010.6 hPa | 0 mm | - | 0 W/m² | - |
| 1778062413 | 6.67° C | 99% | 1009.9 hPa | 0 mm | - | 0 W/m² | - |
| 1778062111 | 6.67° C | 99% | 1010.2 hPa | 0 mm | - | 0 W/m² | - |
| 1778061204 | 6.67° C | 99% | 1009.7 hPa | 0 mm | - | 0 W/m² | - |
| 1778059994 | 6.67° C | 99% | 1009.9 hPa | 1.78 mm | - | 0 W/m² | - |
| 1778059692 | 6.67° C | 99% | 1010.1 hPa | 1.78 mm | - | 0 W/m² | - |
| 1778058784 | 6.67° C | 99% | 1010.7 hPa | 1.27 mm | - | 0 W/m² | - |
| 1778058482 | 6.67° C | 99% | 1010.7 hPa | 1.27 mm | - | 0 W/m² | - |
* Rain latest hour (hover to see other rain measurements)
** Current wind speed in m/s (hover to see current wind gust speed)